Charlotte, North Carolina
Current Conditions -  °F | °C
As of 8:52 PM on Thursday 18 Dec 2014 (Local Time) from KCLT Reporting Station
Broken Clouds Broken Clouds  
Wind Chill: 10°   Ceiling: 6000
Heat Index: 10°   Visibility: 10mi
Dew Point: -4°   Wind: 5mph
Humidity: 38%   Direction: 60°ENE
Pressure: 30.09"   Gusts: NA
Location:  35.22°N, 80.84°W
Report Text: KCLT 190152Z 06004KT 10SM BKN060 BKN250 10/M04 A3009 RMK AO2 SLP190 T01001039
Loading
Personal Weather Stations






























Interactive Weather Map New forecast layout! Learn more

10-Day Weather Forecast

Advertisements
Track Severe Weather on mobile